createdAt,value
2023-05-16T00:00:06.777Z,3.35
2023-05-16T00:02:41.532Z,4.40
2023-05-16T00:05:15.733Z,4.32
2023-05-16T00:07:49.882Z,3.53
2023-05-16T00:10:24.103Z,4.20
2023-05-16T00:12:58.714Z,4.68
2023-05-16T00:15:34.727Z,3.28
2023-05-16T00:18:09.971Z,3.30
2023-05-16T00:20:44.153Z,4.45
2023-05-16T00:23:18.293Z,3.42
2023-05-16T00:25:52.399Z,3.55
2023-05-16T00:28:26.619Z,3.08
2023-05-16T00:31:02.132Z,4.75
2023-05-16T00:33:36.243Z,3.63
2023-05-16T00:36:11.394Z,2.95
2023-05-16T00:38:45.754Z,3.63
2023-05-16T00:41:19.933Z,5.15
2023-05-16T00:43:54.118Z,3.58
2023-05-16T00:46:29.670Z,2.58
2023-05-16T00:49:04.228Z,4.00
2023-05-16T00:51:40.598Z,4.88
2023-05-16T00:54:15.177Z,3.42
2023-05-16T00:56:49.457Z,3.45
2023-05-16T00:59:23.821Z,3.03
2023-05-16T01:01:59.541Z,3.30
2023-05-16T01:04:34.724Z,4.32
2023-05-16T01:07:08.888Z,3.63
2023-05-16T01:09:43.339Z,4.32
2023-05-16T01:12:26.923Z,3.40
2023-05-16T01:15:08.304Z,4.15
2023-05-16T01:18:02.225Z,5.20
2023-05-16T01:20:45.001Z,3.50
2023-05-16T01:23:35.620Z,3.03
2023-05-16T01:26:23.401Z,3.10
2023-05-16T01:28:57.877Z,4.35
2023-05-16T01:31:32.127Z,3.45
2023-05-16T01:34:06.258Z,4.22
2023-05-16T01:36:47.251Z,6.05
2023-05-16T01:39:28.345Z,4.05
2023-05-16T01:42:07.219Z,4.53
2023-05-16T01:44:47.058Z,3.35
2023-05-16T01:47:25.461Z,3.90
2023-05-16T01:50:06.598Z,3.75
2023-05-16T01:52:47.312Z,3.53
2023-05-16T01:55:31.323Z,3.63
2023-05-16T01:58:09.789Z,3.83
2023-05-16T02:00:45.048Z,4.15
2023-05-16T02:03:19.286Z,3.60
2023-05-16T02:05:53.643Z,3.03
2023-05-16T02:08:29.241Z,3.85
2023-05-16T02:11:03.358Z,3.92
2023-05-16T02:13:38.787Z,3.63
2023-05-16T02:16:12.984Z,3.67
2023-05-16T02:18:47.243Z,3.42
2023-05-16T02:21:21.349Z,4.28
2023-05-16T02:23:55.596Z,4.13
2023-05-16T02:26:29.761Z,4.68
2023-05-16T02:29:05.353Z,3.92
2023-05-16T02:31:39.628Z,3.60
2023-05-16T02:34:13.877Z,2.08
2023-05-16T02:36:47.925Z,5.15
2023-05-16T02:39:22.096Z,3.92
2023-05-16T02:41:56.140Z,3.83
2023-05-16T02:44:31.589Z,3.70
2023-05-16T02:47:06.216Z,3.53
2023-05-16T02:49:40.363Z,3.72
2023-05-16T02:52:14.451Z,2.67
2023-05-16T02:54:56.145Z,4.40
2023-05-16T02:57:42.719Z,3.55
2023-05-16T03:00:19.823Z,3.65
2023-05-16T03:02:54.002Z,4.32
2023-05-16T03:05:28.453Z,2.95
2023-05-16T03:08:03.120Z,4.20
2023-05-16T03:10:37.254Z,3.47
2023-05-16T03:13:11.376Z,4.15
2023-05-16T03:15:47.499Z,2.78
2023-05-16T03:18:21.625Z,2.85
2023-05-16T03:20:56.260Z,4.53
2023-05-16T03:23:30.615Z,4.80
2023-05-16T03:26:04.705Z,5.38
2023-05-16T03:28:38.935Z,4.40
2023-05-16T03:31:14.473Z,5.68
2023-05-16T03:33:48.655Z,3.17
2023-05-16T03:36:24.302Z,3.28
2023-05-16T03:38:58.457Z,6.22
2023-05-16T03:41:32.769Z,3.78
2023-05-16T03:44:06.829Z,3.58
2023-05-16T03:46:42.349Z,4.45
2023-05-16T03:49:16.406Z,5.20
2023-05-16T03:51:50.501Z,4.32
2023-05-16T03:54:24.811Z,3.78
2023-05-16T03:56:59.024Z,3.42
2023-05-16T03:59:34.561Z,4.40
2023-05-16T04:02:10.236Z,3.13
2023-05-16T04:04:44.417Z,4.45
2023-05-16T04:07:18.616Z,2.28
2023-05-16T04:09:53.125Z,3.53
2023-05-16T04:12:27.227Z,3.80
2023-05-16T04:15:01.365Z,4.88
2023-05-16T04:17:36.895Z,3.25
2023-05-16T04:20:12.502Z,3.67
2023-05-16T04:22:47.807Z,3.22
2023-05-16T04:25:21.937Z,3.35
2023-05-16T04:27:56.210Z,5.15
2023-05-16T04:30:30.315Z,3.65
2023-05-16T04:33:06.156Z,3.63
2023-05-16T04:35:40.419Z,4.10
2023-05-16T04:38:14.629Z,3.83
2023-05-16T04:40:50.768Z,3.85
2023-05-16T04:43:25.125Z,4.47
2023-05-16T04:45:59.643Z,4.82
2023-05-16T04:48:35.383Z,3.38
2023-05-16T04:51:09.497Z,5.07
2023-05-16T04:53:44.097Z,5.40
2023-05-16T04:56:18.202Z,3.85
2023-05-16T04:58:52.391Z,4.93
2023-05-16T05:01:26.566Z,4.20
2023-05-16T05:04:01.978Z,4.78
2023-05-16T05:06:36.169Z,4.22
2023-05-16T05:09:11.049Z,4.38
2023-05-16T05:11:45.343Z,5.20
2023-05-16T05:14:19.430Z,5.80
2023-05-16T05:16:53.511Z,4.85
2023-05-16T05:19:29.065Z,3.75
2023-05-16T05:22:03.176Z,4.60
2023-05-16T05:24:37.403Z,4.72
2023-05-16T05:27:11.523Z,4.40
2023-05-16T05:29:45.944Z,6.13
2023-05-16T05:32:19.984Z,6.43
2023-05-16T05:34:55.494Z,6.18
2023-05-16T05:37:30.103Z,5.38
2023-05-16T05:40:04.838Z,4.68
2023-05-16T05:42:38.947Z,4.57
2023-05-16T05:45:13.048Z,4.55
2023-05-16T05:47:47.152Z,5.38
2023-05-16T05:50:22.899Z,8.10
2023-05-16T05:52:57.025Z,7.50
2023-05-16T05:55:31.158Z,6.95
2023-05-16T05:58:07.218Z,8.85
2023-05-16T06:00:41.506Z,8.70
2023-05-16T06:03:16.609Z,8.63
2023-05-16T06:05:52.373Z,9.30
2023-05-16T06:08:26.467Z,11.48
2023-05-16T06:11:01.768Z,11.40
2023-05-16T06:13:36.281Z,15.60
2023-05-16T06:16:10.588Z,17.38
2023-05-16T06:18:45.893Z,18.63
2023-05-16T06:21:21.625Z,18.45
2023-05-16T06:23:55.992Z,25.63
2023-05-16T06:26:30.457Z,24.70
2023-05-16T06:29:05.026Z,22.48
2023-05-16T06:31:39.315Z,21.50
2023-05-16T06:34:13.709Z,21.95
2023-05-16T06:36:49.349Z,24.23
2023-05-16T06:39:23.631Z,24.77
2023-05-16T06:41:58.122Z,22.45
2023-05-16T06:44:32.564Z,20.52
2023-05-16T06:47:07.419Z,21.77
2023-05-16T06:49:41.956Z,20.27
2023-05-16T06:52:17.848Z,19.08
2023-05-16T06:54:52.191Z,22.63
2023-05-16T06:57:28.818Z,20.83
2023-05-16T07:00:03.046Z,19.75
2023-05-16T07:02:37.576Z,21.20
2023-05-16T07:05:11.816Z,19.80
2023-05-16T07:07:47.397Z,17.73
2023-05-16T07:10:22.269Z,17.10
2023-05-16T07:12:58.249Z,17.70
2023-05-16T07:15:32.698Z,19.80
2023-05-16T07:18:07.248Z,17.95
2023-05-16T07:20:41.419Z,19.30
2023-05-16T07:23:17.328Z,17.17
2023-05-16T07:25:52.202Z,15.10
2023-05-16T07:28:26.416Z,17.10
2023-05-16T07:31:00.759Z,16.00
2023-05-16T07:33:35.078Z,14.20
2023-05-16T07:36:16.904Z,15.35
2023-05-16T07:38:53.280Z,14.65
2023-05-16T07:41:27.548Z,16.88
2023-05-16T07:44:01.685Z,16.67
2023-05-16T07:46:36.251Z,14.45
2023-05-16T07:49:10.544Z,14.57
2023-05-16T07:51:44.891Z,13.75
2023-05-16T07:54:20.575Z,16.00
2023-05-16T07:56:54.831Z,14.60
2023-05-16T07:59:30.036Z,15.15
2023-05-16T08:02:04.746Z,15.05
2023-05-16T08:04:39.042Z,14.88
2023-05-16T08:07:13.196Z,15.75
2023-05-16T08:09:48.956Z,16.33
2023-05-16T08:12:23.197Z,13.05
2023-05-16T08:14:57.451Z,13.25
2023-05-16T08:17:31.751Z,10.45
2023-05-16T08:20:07.455Z,12.05
2023-05-16T08:22:41.662Z,12.15
2023-05-16T08:25:17.314Z,8.82
2023-05-16T08:27:51.831Z,12.52
2023-05-16T08:30:27.876Z,13.20
2023-05-16T08:33:05.126Z,13.10
2023-05-16T08:35:43.471Z,14.15
2023-05-16T08:38:17.663Z,13.70
2023-05-16T08:40:53.277Z,14.32
2023-05-16T08:43:27.538Z,11.30
2023-05-16T08:46:02.279Z,12.00
2023-05-16T08:48:37.839Z,11.07
2023-05-16T08:51:12.928Z,13.15
2023-05-16T08:53:57.360Z,11.38
2023-05-16T08:56:35.274Z,9.98
2023-05-16T08:59:09.867Z,10.45
2023-05-16T09:01:44.375Z,9.52
2023-05-16T09:04:18.708Z,10.25
2023-05-16T09:06:54.142Z,10.52
2023-05-16T09:09:28.560Z,8.82
2023-05-16T09:12:04.359Z,9.27
2023-05-16T09:14:39.129Z,10.77
2023-05-16T09:17:13.389Z,9.02
2023-05-16T09:19:48.949Z,10.35
2023-05-16T09:22:25.694Z,7.85
2023-05-16T09:25:02.040Z,8.55
2023-05-16T09:27:37.698Z,10.73
2023-05-16T09:30:15.852Z,7.57
2023-05-16T09:32:50.137Z,10.38
2023-05-16T09:35:39.810Z,8.68
2023-05-16T09:38:19.134Z,8.90
2023-05-16T09:40:53.347Z,8.40
2023-05-16T09:43:28.824Z,8.23
2023-05-16T09:46:03.635Z,9.68
2023-05-16T09:48:37.877Z,9.55
2023-05-16T09:51:13.959Z,10.07
2023-05-16T09:53:48.472Z,10.82
2023-05-16T09:56:22.865Z,10.70
2023-05-16T09:58:58.497Z,9.68
2023-05-16T10:01:33.291Z,10.43
2023-05-16T10:04:10.641Z,10.18
2023-05-16T10:06:47.044Z,10.55
2023-05-16T10:09:22.470Z,9.60
2023-05-16T10:11:57.869Z,10.13
2023-05-16T10:14:38.111Z,9.88
2023-05-16T10:17:15.914Z,12.90
2023-05-16T10:19:53.002Z,8.95
2023-05-16T10:22:28.489Z,10.10
2023-05-16T10:25:11.063Z,11.50
2023-05-16T10:27:46.066Z,9.35
2023-05-16T10:30:22.349Z,10.60
2023-05-16T10:32:57.767Z,11.07
2023-05-16T10:35:32.845Z,9.43
2023-05-16T10:38:08.245Z,11.48
2023-05-16T10:40:43.516Z,10.48
2023-05-16T10:43:26.740Z,9.48
2023-05-16T10:46:12.696Z,12.55
2023-05-16T10:48:47.948Z,12.48
2023-05-16T10:51:38.950Z,13.52
2023-05-16T10:54:15.397Z,13.85
2023-05-16T10:56:59.477Z,13.48
2023-05-16T10:59:45.066Z,12.57
2023-05-16T11:02:29.283Z,12.25
2023-05-16T11:05:04.286Z,13.48
2023-05-16T11:07:38.699Z,15.68
2023-05-16T11:10:17.708Z,11.88
2023-05-16T11:12:54.699Z,12.38
2023-05-16T11:15:32.802Z,15.52
2023-05-16T11:18:10.983Z,13.70
2023-05-16T11:20:45.506Z,11.95
2023-05-16T11:23:24.737Z,16.63
2023-05-16T11:26:00.713Z,15.15
2023-05-16T11:28:37.221Z,12.50
2023-05-16T11:31:11.419Z,13.85
2023-05-16T11:33:48.067Z,12.60
2023-05-16T11:36:23.308Z,12.98
2023-05-16T11:39:09.507Z,11.82
2023-05-16T11:41:43.834Z,12.18
2023-05-16T11:44:18.437Z,13.68
2023-05-16T11:46:52.816Z,13.73
2023-05-16T11:49:29.078Z,13.25
2023-05-16T11:52:03.648Z,14.88
2023-05-16T11:54:38.454Z,13.27
2023-05-16T11:57:12.925Z,12.98
2023-05-16T11:59:47.490Z,11.27
2023-05-16T12:02:22.324Z,13.23
2023-05-16T12:04:58.252Z,13.20
2023-05-16T12:07:32.446Z,10.88
2023-05-16T12:10:08.894Z,12.02
2023-05-16T12:12:46.708Z,15.52
2023-05-16T12:15:21.644Z,10.55
2023-05-16T12:17:56.969Z,8.93
2023-05-16T12:20:33.262Z,9.77
2023-05-16T12:23:12.740Z,10.57
2023-05-16T12:25:49.396Z,9.85
2023-05-16T12:28:23.590Z,10.60
2023-05-16T12:30:57.709Z,8.23
2023-05-16T12:33:32.047Z,9.52
2023-05-16T12:36:15.914Z,8.57
2023-05-16T12:38:50.253Z,9.73
2023-05-16T12:41:24.736Z,10.85
2023-05-16T12:44:10.399Z,9.30
2023-05-16T12:46:46.744Z,8.63
2023-05-16T12:49:23.953Z,8.20
2023-05-16T12:52:05.701Z,8.05
2023-05-16T12:54:39.941Z,9.43
2023-05-16T12:57:14.089Z,10.02
2023-05-16T12:59:48.239Z,8.05
2023-05-16T13:02:22.668Z,9.35
2023-05-16T13:04:57.679Z,9.02
2023-05-16T13:07:33.310Z,10.90
2023-05-16T13:10:10.204Z,9.95
2023-05-16T13:12:44.980Z,7.88
2023-05-16T13:15:19.263Z,10.80
2023-05-16T13:17:53.726Z,8.30
2023-05-16T13:20:29.243Z,9.05
2023-05-16T13:23:05.479Z,8.05
2023-05-16T13:25:39.629Z,7.50
2023-05-16T13:28:13.744Z,7.85
2023-05-16T13:30:47.842Z,9.85
2023-05-16T13:33:22.738Z,6.00
2023-05-16T13:35:57.384Z,6.88
2023-05-16T13:38:32.860Z,8.98
2023-05-16T13:41:07.047Z,5.50
2023-05-16T13:43:41.349Z,6.90
2023-05-16T13:46:15.675Z,8.13
2023-05-16T13:48:49.971Z,4.75
2023-05-16T13:51:24.183Z,4.40
2023-05-16T13:53:59.739Z,6.82
2023-05-16T13:56:33.881Z,4.70
2023-05-16T13:59:09.103Z,4.93
2023-05-16T14:01:45.082Z,4.10
2023-05-16T14:04:19.293Z,5.88
2023-05-16T14:06:54.563Z,4.30
2023-05-16T14:09:33.775Z,3.55
2023-05-16T14:12:08.969Z,3.65
2023-05-16T14:14:43.121Z,4.55
2023-05-16T14:17:17.252Z,4.25
2023-05-16T14:19:51.469Z,2.95
2023-05-16T14:22:25.709Z,3.30
2023-05-16T14:25:01.243Z,3.60
2023-05-16T14:27:35.655Z,4.00
2023-05-16T14:30:11.220Z,3.08
2023-05-16T14:32:45.470Z,2.10
2023-05-16T14:35:19.766Z,2.95
2023-05-16T14:37:54.120Z,3.47
2023-05-16T14:40:29.656Z,3.60
2023-05-16T14:43:04.999Z,3.75
2023-05-16T14:45:40.372Z,4.95
2023-05-16T14:48:14.573Z,3.10
2023-05-16T14:50:49.126Z,3.08
2023-05-16T14:53:23.276Z,3.25
2023-05-16T14:55:59.110Z,2.67
2023-05-16T14:58:33.307Z,2.65
2023-05-16T15:01:07.576Z,4.05
2023-05-16T15:06:18.907Z,3.47
2023-05-16T15:08:53.100Z,2.85
2023-05-16T15:11:29.896Z,2.42
2023-05-16T15:14:04.156Z,3.72
2023-05-16T15:16:38.802Z,2.58
2023-05-16T15:19:13.607Z,2.63
2023-05-16T15:21:48.056Z,2.78
2023-05-16T15:24:24.115Z,2.33
2023-05-16T15:26:59.866Z,4.50
2023-05-16T15:29:34.172Z,3.33
2023-05-16T15:32:11.680Z,3.42
2023-05-16T15:34:46.051Z,2.90
2023-05-16T15:37:23.236Z,3.47
2023-05-16T15:39:57.499Z,2.47
2023-05-16T15:42:33.237Z,1.65
2023-05-16T15:45:09.628Z,2.25
2023-05-16T15:47:44.050Z,2.33
2023-05-16T15:50:18.762Z,3.63
2023-05-16T15:52:52.986Z,2.38
2023-05-16T15:55:27.544Z,2.38
2023-05-16T15:58:04.000Z,1.52
2023-05-16T16:00:39.324Z,2.35
2023-05-16T16:03:14.048Z,2.47
2023-05-16T16:05:48.823Z,1.30
2023-05-16T16:08:25.920Z,3.25
2023-05-16T16:11:00.298Z,2.30
2023-05-16T16:13:36.139Z,1.75
2023-05-16T16:16:10.561Z,1.48
2023-05-16T16:18:45.454Z,2.83
2023-05-16T16:21:24.619Z,2.65
2023-05-16T16:23:58.951Z,1.73
2023-05-16T16:26:33.492Z,0.98
2023-05-16T16:29:09.158Z,1.30
2023-05-16T16:31:44.045Z,1.35
2023-05-16T16:34:19.469Z,3.65
2023-05-16T16:36:55.218Z,1.52
2023-05-16T16:39:32.214Z,0.52
2023-05-16T16:42:08.552Z,1.77
2023-05-16T16:44:44.422Z,1.88
2023-05-16T16:47:19.115Z,2.75
2023-05-16T16:49:53.759Z,1.10
2023-05-16T16:52:28.210Z,1.88
2023-05-16T16:55:02.702Z,3.80
2023-05-16T16:57:37.116Z,1.13
2023-05-16T17:00:14.390Z,2.35
2023-05-16T17:02:48.702Z,0.93
2023-05-16T17:05:24.205Z,1.42
2023-05-16T17:07:58.660Z,2.88
2023-05-16T17:10:32.975Z,2.63
2023-05-16T17:13:10.595Z,3.78
2023-05-16T17:15:47.389Z,2.20
2023-05-16T17:18:21.832Z,2.08
2023-05-16T17:20:56.212Z,4.00
2023-05-16T17:23:30.415Z,2.05
2023-05-16T17:26:04.941Z,1.67
2023-05-16T17:28:39.837Z,1.85
2023-05-16T17:31:16.443Z,2.15
2023-05-16T17:33:51.181Z,4.22
2023-05-16T17:36:28.122Z,1.13
2023-05-16T17:39:02.837Z,1.90
2023-05-16T17:41:37.109Z,2.60
2023-05-16T17:44:11.449Z,2.20
2023-05-16T17:46:47.157Z,1.73
2023-05-16T17:49:21.904Z,3.97
2023-05-16T17:51:59.106Z,3.47
2023-05-16T17:54:34.743Z,2.13
2023-05-16T17:57:08.972Z,1.92
2023-05-16T17:59:43.179Z,1.80
2023-05-16T18:02:18.921Z,1.10
2023-05-16T18:04:53.160Z,2.33
2023-05-16T18:07:28.616Z,1.80
2023-05-16T18:10:02.850Z,1.15
2023-05-16T18:12:38.872Z,4.18
2023-05-16T18:15:13.276Z,2.13
2023-05-16T18:17:49.554Z,3.10
2023-05-16T18:20:24.726Z,1.77
2023-05-16T18:22:59.918Z,2.17
2023-05-16T18:25:34.121Z,1.73
2023-05-16T18:28:08.682Z,3.95
2023-05-16T18:30:42.969Z,1.58
2023-05-16T18:33:18.808Z,2.28
2023-05-16T18:35:53.667Z,3.13
2023-05-16T18:38:33.172Z,3.78
2023-05-16T18:41:07.910Z,2.30
2023-05-16T18:43:42.152Z,4.05
2023-05-16T18:46:16.565Z,2.38
2023-05-16T18:48:52.885Z,2.75
2023-05-16T18:51:28.644Z,1.73
2023-05-16T18:54:03.976Z,2.42
2023-05-16T18:56:38.340Z,1.42
2023-05-16T18:59:12.710Z,3.10
2023-05-16T19:01:47.266Z,4.68
2023-05-16T19:04:23.355Z,1.77
2023-05-16T19:06:58.097Z,2.58
2023-05-16T19:09:32.793Z,1.10
2023-05-16T19:12:07.784Z,3.05
2023-05-16T19:14:42.036Z,3.00
2023-05-16T19:17:16.492Z,2.30
2023-05-16T19:19:52.199Z,1.65
2023-05-16T19:22:27.969Z,4.72
2023-05-16T19:25:02.232Z,2.10
2023-05-16T19:27:36.702Z,1.00
2023-05-16T19:30:11.890Z,1.55
2023-05-16T19:32:46.205Z,2.13
2023-05-16T19:35:22.364Z,1.75
2023-05-16T19:37:56.581Z,1.15
2023-05-16T19:40:31.469Z,3.95
2023-05-16T19:43:06.557Z,1.90
2023-05-16T19:45:40.866Z,1.83
2023-05-16T19:48:15.290Z,1.58
2023-05-16T19:50:51.074Z,1.55
2023-05-16T19:53:29.334Z,2.92
2023-05-16T19:56:04.509Z,2.70
2023-05-16T19:58:38.848Z,2.25
2023-05-16T20:01:13.283Z,2.75
2023-05-16T20:03:47.881Z,0.47
2023-05-16T20:06:23.640Z,0.95
2023-05-16T20:08:58.270Z,2.90
2023-05-16T20:11:32.883Z,0.95
2023-05-16T20:14:07.373Z,1.73
2023-05-16T20:16:41.686Z,2.25
2023-05-16T20:19:19.120Z,3.13
2023-05-16T20:21:54.923Z,1.35
2023-05-16T20:24:35.708Z,1.88
2023-05-16T20:27:10.968Z,2.83
2023-05-16T20:29:45.158Z,1.65
2023-05-16T20:32:19.481Z,3.33
2023-05-16T20:34:53.855Z,3.15
2023-05-16T20:37:30.382Z,3.40
2023-05-16T20:40:06.236Z,2.25
2023-05-16T20:42:40.804Z,3.03
2023-05-16T20:45:15.612Z,3.92
2023-05-16T20:47:51.093Z,1.17
2023-05-16T20:50:25.805Z,2.58
2023-05-16T20:53:01.669Z,1.30
2023-05-16T20:55:35.867Z,2.22
2023-05-16T20:58:10.225Z,3.20
2023-05-16T21:00:44.427Z,2.80
2023-05-16T21:03:19.057Z,1.55
2023-05-16T21:05:53.776Z,2.17
2023-05-16T21:08:31.853Z,3.22
2023-05-16T21:11:06.133Z,1.45
2023-05-16T21:13:40.324Z,2.42
2023-05-16T21:16:14.581Z,0.63
2023-05-16T21:18:49.439Z,1.63
2023-05-16T21:21:23.731Z,1.67
2023-05-16T21:23:59.502Z,1.52
2023-05-16T21:26:33.741Z,2.95
2023-05-16T21:29:07.952Z,1.00
2023-05-16T21:31:42.019Z,2.25
2023-05-16T21:34:16.296Z,2.83
2023-05-16T21:36:50.359Z,1.02
2023-05-16T21:39:25.855Z,2.63
2023-05-16T21:42:00.770Z,4.30
2023-05-16T21:44:34.858Z,1.92
2023-05-16T21:47:08.935Z,1.60
2023-05-16T21:49:43.097Z,1.73
2023-05-16T21:52:17.157Z,3.28
2023-05-16T21:54:52.655Z,4.32
2023-05-16T21:57:27.181Z,1.20
2023-05-16T22:00:02.402Z,3.05
2023-05-16T22:02:37.271Z,1.50
2023-05-16T22:05:12.070Z,1.15
2023-05-16T22:07:46.537Z,2.40
2023-05-16T22:10:22.578Z,1.00
2023-05-16T22:12:56.657Z,0.47
2023-05-16T22:15:31.196Z,1.50
2023-05-16T22:18:05.762Z,1.73
2023-05-16T22:20:39.917Z,1.42
2023-05-16T22:23:14.027Z,1.35
2023-05-16T22:25:49.544Z,2.75
2023-05-16T22:28:23.648Z,0.95
2023-05-16T22:30:57.946Z,0.93
2023-05-16T22:33:32.087Z,1.60
2023-05-16T22:36:07.053Z,1.15
2023-05-16T22:38:41.252Z,2.15
2023-05-16T22:41:16.701Z,0.47
2023-05-16T22:43:50.964Z,0.55
2023-05-16T22:46:25.277Z,1.55
2023-05-16T22:48:59.459Z,0.93
2023-05-16T22:51:33.633Z,0.45
2023-05-16T22:54:07.809Z,2.17
2023-05-16T22:56:43.393Z,0.40
2023-05-16T22:59:17.665Z,1.35
2023-05-16T23:01:51.753Z,1.23
2023-05-16T23:04:26.029Z,2.72
2023-05-16T23:07:00.164Z,1.60
2023-05-16T23:09:34.313Z,0.90
2023-05-16T23:12:10.337Z,1.27
2023-05-16T23:14:44.398Z,1.08
2023-05-16T23:17:18.542Z,0.90
2023-05-16T23:19:52.719Z,1.95
2023-05-16T23:22:26.890Z,1.00
2023-05-16T23:25:01.064Z,1.02
2023-05-16T23:27:36.919Z,0.95
2023-05-16T23:30:12.532Z,1.85
2023-05-16T23:32:46.796Z,2.55
2023-05-16T23:35:21.083Z,0.88
2023-05-16T23:37:55.221Z,1.02
2023-05-16T23:40:29.349Z,1.20
2023-05-16T23:43:04.951Z,1.05
2023-05-16T23:45:39.115Z,0.63
2023-05-16T23:48:13.286Z,2.53
2023-05-16T23:50:47.467Z,0.30
2023-05-16T23:53:22.097Z,2.05
2023-05-16T23:55:56.547Z,0.82
2023-05-16T23:58:32.043Z,0.50
